createdAt,value
2023-11-25T00:01:52.082Z,98204.28
2023-11-25T00:04:19.560Z,98219.69
2023-11-25T00:06:46.097Z,98231.56
2023-11-25T00:09:16.915Z,98242.50
2023-11-25T00:11:43.663Z,98234.06
2023-11-25T00:14:10.354Z,98242.50
2023-11-25T00:16:37.020Z,98235.94
2023-11-25T00:19:07.059Z,98254.72
2023-11-25T00:21:33.770Z,98261.53
2023-11-25T00:24:00.263Z,98280.44
2023-11-25T00:26:26.848Z,98280.31
2023-11-25T00:28:53.344Z,98280.31
2023-11-25T00:31:20.112Z,98283.63
2023-11-25T00:33:46.861Z,98288.00
2023-11-25T00:36:13.424Z,98292.31
2023-11-25T00:38:39.969Z,98276.19
2023-11-25T00:41:06.802Z,98276.88
2023-11-25T00:43:33.598Z,98278.47
2023-11-25T00:46:00.196Z,98276.72
2023-11-25T00:48:26.965Z,98274.25
2023-11-25T00:50:53.613Z,98275.97
2023-11-25T00:53:20.418Z,98270.16
2023-11-25T00:55:47.890Z,98263.94
2023-11-25T00:58:14.421Z,98255.63
2023-11-25T01:00:41.055Z,98260.81
2023-11-25T01:03:08.022Z,98262.53
2023-11-25T01:05:34.564Z,98261.53
2023-11-25T01:08:01.054Z,98248.38
2023-11-25T01:10:27.770Z,98255.25
2023-11-25T01:12:54.394Z,98253.41
2023-11-25T01:15:21.114Z,98241.38
2023-11-25T01:17:47.694Z,98239.56
2023-11-25T01:20:15.002Z,98252.03
2023-11-25T01:22:41.610Z,98253.78
2023-11-25T01:25:08.559Z,98258.28
2023-11-25T01:27:36.726Z,98251.34
2023-11-25T01:30:05.817Z,98248.66
2023-11-25T01:32:32.783Z,98251.19
2023-11-25T01:34:59.416Z,98249.56
2023-11-25T01:37:27.861Z,98241.06
2023-11-25T01:39:54.476Z,98228.88
2023-11-25T01:42:21.147Z,98227.41
2023-11-25T01:44:48.016Z,98214.75
2023-11-25T01:47:15.016Z,98201.91
2023-11-25T01:49:43.223Z,98193.22
2023-11-25T01:52:10.468Z,98199.09
2023-11-25T01:54:37.229Z,98201.56
2023-11-25T01:57:04.407Z,98197.47
2023-11-25T01:59:33.418Z,98199.88
2023-11-25T02:02:01.981Z,98185.47
2023-11-25T02:04:28.793Z,98173.69
2023-11-25T02:06:55.924Z,98176.16
2023-11-25T02:09:25.766Z,98181.09
2023-11-25T02:11:59.835Z,98175.25
2023-11-25T02:14:27.745Z,98164.28
2023-11-25T02:16:58.009Z,98160.84
2023-11-25T02:19:30.096Z,98174.13
2023-11-25T02:21:57.197Z,98165.31
2023-11-25T02:24:27.699Z,98176.16
2023-11-25T02:27:00.561Z,98190.31
2023-11-25T02:29:28.521Z,98198.63
2023-11-25T02:31:55.167Z,98193.53
2023-11-25T02:34:21.948Z,98191.28
2023-11-25T02:36:49.649Z,98205.63
2023-11-25T02:39:19.058Z,98197.94
2023-11-25T02:41:50.166Z,98198.03
2023-11-25T02:44:20.911Z,98209.03
2023-11-25T02:46:49.469Z,98195.81
2023-11-25T02:49:16.609Z,98198.72
2023-11-25T02:51:49.827Z,98199.56
2023-11-25T02:54:17.537Z,98212.47
2023-11-25T02:56:44.416Z,98198.69
2023-11-25T02:59:12.207Z,98208.97
2023-11-25T03:01:43.882Z,98210.41
2023-11-25T03:04:12.841Z,98217.19
2023-11-25T03:06:39.500Z,98212.78
2023-11-25T03:09:07.613Z,98214.38
2023-11-25T03:11:35.207Z,98214.25
2023-11-25T03:14:01.733Z,98209.78
2023-11-25T03:16:28.953Z,98206.06
2023-11-25T03:18:55.532Z,98206.94
2023-11-25T03:21:22.302Z,98208.78
2023-11-25T03:23:48.863Z,98207.19
2023-11-25T03:26:16.157Z,98208.66
2023-11-25T03:28:42.796Z,98212.81
2023-11-25T03:31:09.429Z,98222.06
2023-11-25T03:33:35.933Z,98214.63
2023-11-25T03:36:02.454Z,98210.38
2023-11-25T03:38:28.928Z,98212.69
2023-11-25T03:40:55.381Z,98214.13
2023-11-25T03:43:24.778Z,98220.91
2023-11-25T03:45:51.841Z,98215.03
2023-11-25T03:48:18.513Z,98211.47
2023-11-25T03:50:46.453Z,98219.13
2023-11-25T03:53:13.128Z,98215.91
2023-11-25T03:55:40.655Z,98217.63
2023-11-25T03:58:07.222Z,98223.00
2023-11-25T04:00:35.188Z,98227.25
2023-11-25T04:03:02.531Z,98227.19
2023-11-25T04:05:29.239Z,98229.19
2023-11-25T04:07:55.720Z,98216.25
2023-11-25T04:10:22.568Z,98213.00
2023-11-25T04:12:50.470Z,98214.16
2023-11-25T04:15:22.803Z,98214.44
2023-11-25T04:17:50.178Z,98214.47
2023-11-25T04:20:25.967Z,98212.03
2023-11-25T04:22:53.474Z,98212.97
2023-11-25T04:25:20.349Z,98204.97
2023-11-25T04:27:48.995Z,98209.50
2023-11-25T04:30:17.513Z,98209.50
2023-11-25T04:32:46.758Z,98203.09
2023-11-25T04:35:16.790Z,98207.34
2023-11-25T04:37:46.422Z,98202.97
2023-11-25T04:40:13.710Z,98205.72
2023-11-25T04:42:42.236Z,98211.88
2023-11-25T04:45:16.441Z,98208.50
2023-11-25T04:47:47.035Z,98203.25
2023-11-25T04:50:17.880Z,98218.72
2023-11-25T04:52:44.887Z,98228.75
2023-11-25T04:55:15.601Z,98229.53
2023-11-25T04:57:43.192Z,98228.47
2023-11-25T05:00:12.089Z,98224.47
2023-11-25T05:02:39.495Z,98228.00
2023-11-25T05:05:06.840Z,98231.47
2023-11-25T05:07:34.619Z,98228.00
2023-11-25T05:10:01.869Z,98235.25
2023-11-25T05:12:28.977Z,98228.75
2023-11-25T05:14:55.533Z,98226.34
2023-11-25T05:17:23.261Z,98229.09
2023-11-25T05:19:49.905Z,98224.00
2023-11-25T05:22:16.493Z,98226.84
2023-11-25T05:24:43.112Z,98231.06
2023-11-25T05:27:09.669Z,98226.72
2023-11-25T05:29:36.382Z,98224.81
2023-11-25T05:32:04.430Z,98219.69
2023-11-25T05:34:31.228Z,98216.25
2023-11-25T05:36:58.330Z,98214.34
2023-11-25T05:39:25.597Z,98220.00
2023-11-25T05:41:52.720Z,98213.72
2023-11-25T05:44:21.586Z,98207.34
2023-11-25T05:46:48.144Z,98213.59
2023-11-25T05:49:14.670Z,98218.59
2023-11-25T05:51:43.653Z,98223.66
2023-11-25T05:54:14.074Z,98215.06
2023-11-25T05:56:41.759Z,98224.84
2023-11-25T05:59:11.365Z,98222.44
2023-11-25T06:01:39.213Z,98232.69
2023-11-25T06:04:06.249Z,98236.78
2023-11-25T06:06:33.140Z,98236.16
2023-11-25T06:08:59.692Z,98238.72
2023-11-25T06:11:29.207Z,98237.63
2023-11-25T06:13:57.738Z,98239.84
2023-11-25T06:16:25.818Z,98239.84
2023-11-25T06:18:53.267Z,98242.56
2023-11-25T06:21:21.054Z,98241.88
2023-11-25T06:23:49.844Z,98239.34
2023-11-25T06:26:16.594Z,98243.28
2023-11-25T06:28:45.344Z,98248.63
2023-11-25T06:31:16.553Z,98247.72
2023-11-25T06:33:43.283Z,98242.88
2023-11-25T06:36:11.633Z,98246.25
2023-11-25T06:38:38.963Z,98248.97
2023-11-25T06:41:06.045Z,98244.69
2023-11-25T06:43:32.730Z,98243.97
2023-11-25T06:46:00.833Z,98246.63
2023-11-25T06:48:29.573Z,98250.84
2023-11-25T06:50:57.572Z,98258.09
2023-11-25T06:53:24.061Z,98259.16
2023-11-25T06:55:50.602Z,98261.25
2023-11-25T06:58:17.264Z,98270.59
2023-11-25T07:00:43.897Z,98269.00
2023-11-25T07:03:10.634Z,98277.59
2023-11-25T07:05:38.423Z,98275.03
2023-11-25T07:08:06.454Z,98293.03
2023-11-25T07:10:37.029Z,98291.69
2023-11-25T07:13:04.936Z,98280.91
2023-11-25T07:15:31.527Z,98291.97
2023-11-25T07:17:58.819Z,98290.53
2023-11-25T07:20:26.040Z,98298.44
2023-11-25T07:22:52.626Z,98285.81
2023-11-25T07:25:20.030Z,98288.66
2023-11-25T07:27:47.296Z,98288.84
2023-11-25T07:30:15.642Z,98293.41
2023-11-25T07:32:43.207Z,98296.28
2023-11-25T07:35:09.967Z,98295.56
2023-11-25T07:37:36.717Z,98294.13
2023-11-25T07:40:13.606Z,98300.31
2023-11-25T07:42:40.114Z,98295.59
2023-11-25T07:45:10.648Z,98294.19
2023-11-25T07:47:38.440Z,98301.34
2023-11-25T07:50:06.061Z,98294.63
2023-11-25T07:52:32.974Z,98302.78
2023-11-25T07:54:59.523Z,98296.94
2023-11-25T07:57:26.060Z,98303.88
2023-11-25T07:59:52.625Z,98299.81
2023-11-25T08:02:19.583Z,98306.00
2023-11-25T08:04:46.200Z,98305.34
2023-11-25T08:07:16.079Z,98304.75
2023-11-25T08:09:44.166Z,98305.75
2023-11-25T08:12:11.062Z,98299.09
2023-11-25T08:14:37.695Z,98297.44
2023-11-25T08:17:04.306Z,98295.66
2023-11-25T08:19:30.850Z,98280.44
2023-11-25T08:21:57.586Z,98281.19
2023-11-25T08:24:24.392Z,98285.38
2023-11-25T08:26:51.464Z,98297.34
2023-11-25T08:29:19.712Z,98296.41
2023-11-25T08:31:46.385Z,98299.22
2023-11-25T08:34:13.625Z,98304.50
2023-11-25T08:36:53.669Z,98302.06
2023-11-25T08:39:27.084Z,98310.59
2023-11-25T08:41:55.092Z,98316.69
2023-11-25T08:44:21.781Z,98319.25
2023-11-25T08:46:49.589Z,98315.16
2023-11-25T08:49:17.603Z,98313.25
2023-11-25T08:51:47.966Z,98323.47
2023-11-25T08:54:15.236Z,98325.16
2023-11-25T08:56:45.306Z,98317.41
2023-11-25T08:59:12.772Z,98318.41
2023-11-25T09:01:40.439Z,98324.53
2023-11-25T09:04:08.104Z,98330.53
2023-11-25T09:06:38.214Z,98334.16
2023-11-25T09:09:08.419Z,98330.00
2023-11-25T09:11:35.808Z,98337.63
2023-11-25T09:14:05.343Z,98340.16
2023-11-25T09:16:32.127Z,98334.31
2023-11-25T09:19:00.668Z,98341.19
2023-11-25T09:21:27.736Z,98335.31
2023-11-25T09:23:56.373Z,98327.84
2023-11-25T09:26:25.651Z,98324.50
2023-11-25T09:28:56.340Z,98329.19
2023-11-25T09:31:24.022Z,98318.03
2023-11-25T09:33:51.914Z,98318.06
2023-11-25T09:36:23.856Z,98317.19
2023-11-25T09:38:50.627Z,98315.63
2023-11-25T09:41:17.217Z,98317.31
2023-11-25T09:43:44.093Z,98313.97
2023-11-25T09:46:12.556Z,98305.34
2023-11-25T09:48:39.133Z,98297.81
2023-11-25T09:51:14.648Z,98293.59
2023-11-25T09:53:44.133Z,98293.66
2023-11-25T09:56:12.739Z,98293.78
2023-11-25T09:58:39.436Z,98303.16
2023-11-25T10:01:07.538Z,98300.44
2023-11-25T10:03:35.938Z,98299.41
2023-11-25T10:06:03.259Z,98318.03
2023-11-25T10:08:30.570Z,98308.56
2023-11-25T10:11:07.506Z,98317.84
2023-11-25T10:13:35.819Z,98320.47
2023-11-25T10:16:03.430Z,98316.16
2023-11-25T10:18:31.348Z,98315.25
2023-11-25T10:21:00.775Z,98317.16
2023-11-25T10:23:28.108Z,98318.75
2023-11-25T10:25:55.218Z,98330.72
2023-11-25T10:28:26.194Z,98333.97
2023-11-25T10:30:56.899Z,98322.72
2023-11-25T10:33:28.556Z,98341.16
2023-11-25T10:35:56.066Z,98329.34
2023-11-25T10:38:28.801Z,98315.81
2023-11-25T10:41:00.464Z,98318.41
2023-11-25T10:43:28.726Z,98309.22
2023-11-25T10:46:09.479Z,98312.78
2023-11-25T10:48:39.609Z,98323.06
2023-11-25T10:51:10.393Z,98322.97
2023-11-25T10:53:45.759Z,98319.47
2023-11-25T10:56:15.330Z,98314.25
2023-11-25T10:58:42.021Z,98321.69
2023-11-25T11:01:09.102Z,98312.72
2023-11-25T11:03:51.881Z,98302.53
2023-11-25T11:06:28.088Z,98299.91
2023-11-25T11:08:54.942Z,98292.22
2023-11-25T11:11:32.610Z,98295.53
2023-11-25T11:14:10.949Z,98279.25
2023-11-25T11:16:40.475Z,98288.78
2023-11-25T11:19:09.096Z,98280.34
2023-11-25T11:21:38.837Z,98295.78
2023-11-25T11:24:08.994Z,98307.88
2023-11-25T11:26:54.593Z,98305.50
2023-11-25T11:30:11.907Z,98300.31
2023-11-25T11:32:43.909Z,98297.03
2023-11-25T11:35:13.456Z,98302.81
2023-11-25T11:37:48.395Z,98297.72
2023-11-25T11:40:15.018Z,98286.41
2023-11-25T11:42:41.827Z,98284.69
2023-11-25T11:45:26.849Z,98275.53
2023-11-25T11:47:58.276Z,98271.38
2023-11-25T11:50:30.602Z,98281.50
2023-11-25T11:53:00.171Z,98283.88
2023-11-25T11:55:42.829Z,98281.47
2023-11-25T11:58:11.031Z,98284.16
2023-11-25T12:00:40.853Z,98282.34
2023-11-25T12:03:09.197Z,98271.38
2023-11-25T12:05:36.663Z,98273.00
2023-11-25T12:08:03.606Z,98278.09
2023-11-25T12:10:30.244Z,98273.53
2023-11-25T12:12:56.810Z,98288.13
2023-11-25T12:15:23.434Z,98271.63
2023-11-25T12:17:54.157Z,98274.44
2023-11-25T12:20:21.065Z,98282.91
2023-11-25T12:22:47.734Z,98288.75
2023-11-25T12:25:20.709Z,98281.19
2023-11-25T12:27:59.644Z,98281.13
2023-11-25T12:30:27.895Z,98264.09
2023-11-25T12:32:54.506Z,98274.25
2023-11-25T12:35:21.074Z,98278.56
2023-11-25T12:38:01.262Z,98270.91
2023-11-25T12:40:37.184Z,98279.44
2023-11-25T12:43:07.603Z,98288.81
2023-11-25T12:45:42.358Z,98288.63
2023-11-25T12:48:12.977Z,98287.66
2023-11-25T12:51:08.681Z,98294.56
2023-11-25T12:53:38.191Z,98292.22
2023-11-25T12:56:05.966Z,98302.47
2023-11-25T12:58:32.615Z,98308.34
2023-11-25T13:00:59.908Z,98311.81
2023-11-25T13:03:33.287Z,98327.69
2023-11-25T13:06:02.250Z,98323.16
2023-11-25T13:08:30.377Z,98346.75
2023-11-25T13:10:58.700Z,98324.50
2023-11-25T13:13:30.549Z,98330.63
2023-11-25T13:16:00.851Z,98338.91
2023-11-25T13:18:28.055Z,98330.97
2023-11-25T13:20:55.973Z,98335.25
2023-11-25T13:23:23.059Z,98337.94
2023-11-25T13:25:51.042Z,98341.88
2023-11-25T13:28:17.610Z,98341.75
2023-11-25T13:30:44.165Z,98354.34
2023-11-25T13:33:13.351Z,98345.94
2023-11-25T13:35:40.075Z,98362.06
2023-11-25T13:38:09.948Z,98360.00
2023-11-25T13:40:38.988Z,98368.41
2023-11-25T13:43:07.728Z,98378.75
2023-11-25T13:45:34.240Z,98376.91
2023-11-25T13:48:06.943Z,98381.00
2023-11-25T13:50:34.134Z,98376.63
2023-11-25T13:53:06.680Z,98397.88
2023-11-25T13:55:44.352Z,98381.78
2023-11-25T13:58:11.169Z,98391.41
2023-11-25T14:00:38.388Z,98394.66
2023-11-25T14:03:12.089Z,98386.09
2023-11-25T14:05:39.347Z,98398.69
2023-11-25T14:08:08.868Z,98394.97
2023-11-25T14:10:38.615Z,98399.94
2023-11-25T14:13:07.087Z,98405.03
2023-11-25T14:15:33.842Z,98408.38
2023-11-25T14:18:02.411Z,98408.38
2023-11-25T14:20:29.726Z,98410.16
2023-11-25T14:22:57.557Z,98408.41
2023-11-25T14:25:25.189Z,98420.09
2023-11-25T14:27:51.791Z,98415.84
2023-11-25T14:30:19.037Z,98419.16
2023-11-25T14:32:49.964Z,98430.41
2023-11-25T14:35:17.708Z,98425.31
2023-11-25T14:37:47.083Z,98428.03
2023-11-25T14:40:19.094Z,98437.06
2023-11-25T14:42:46.197Z,98428.53
2023-11-25T14:45:13.855Z,98436.97
2023-11-25T14:47:40.915Z,98440.47
2023-11-25T14:50:09.473Z,98432.59
2023-11-25T14:52:36.667Z,98440.84
2023-11-25T14:55:03.320Z,98443.66
2023-11-25T14:57:29.776Z,98438.97
2023-11-25T14:59:56.285Z,98434.22
2023-11-25T15:02:22.944Z,98453.00
2023-11-25T15:04:49.665Z,98446.38
2023-11-25T15:07:16.252Z,98458.25
2023-11-25T15:09:44.309Z,98465.09
2023-11-25T15:12:11.574Z,98468.38
2023-11-25T15:14:38.831Z,98469.56
2023-11-25T15:17:08.503Z,98469.75
2023-11-25T15:19:36.775Z,98468.78
2023-11-25T15:22:03.770Z,98480.41
2023-11-25T15:24:30.776Z,98474.97
2023-11-25T15:26:57.377Z,98486.97
2023-11-25T15:29:23.978Z,98486.81
2023-11-25T15:31:51.065Z,98491.94
2023-11-25T15:34:18.037Z,98493.69
2023-11-25T15:36:44.638Z,98492.50
2023-11-25T15:39:17.545Z,98485.34
2023-11-25T15:41:47.001Z,98488.56
2023-11-25T15:44:14.035Z,98485.56
2023-11-25T15:46:41.602Z,98495.88
2023-11-25T15:49:09.435Z,98496.59
2023-11-25T15:51:36.922Z,98496.53
2023-11-25T15:54:03.941Z,98509.22
2023-11-25T15:56:30.927Z,98503.25
2023-11-25T15:59:00.359Z,98507.44
2023-11-25T16:01:29.038Z,98510.66
2023-11-25T16:03:55.780Z,98513.25
2023-11-25T16:06:22.311Z,98522.97
2023-11-25T16:08:48.907Z,98518.66
2023-11-25T16:11:15.388Z,98536.19
2023-11-25T16:13:41.917Z,98528.25
2023-11-25T16:16:08.497Z,98528.25
2023-11-25T16:18:35.038Z,98537.69
2023-11-25T16:21:01.856Z,98534.88
2023-11-25T16:23:29.307Z,98543.19
2023-11-25T16:25:55.861Z,98550.63
2023-11-25T16:28:23.442Z,98554.97
2023-11-25T16:30:50.160Z,98565.19
2023-11-25T16:33:17.069Z,98571.13
2023-11-25T16:35:43.670Z,98571.28
2023-11-25T16:38:10.406Z,98572.63
2023-11-25T16:40:37.674Z,98581.09
2023-11-25T16:43:04.711Z,98586.97
2023-11-25T16:45:33.583Z,98587.94
2023-11-25T16:48:01.604Z,98597.16
2023-11-25T16:50:29.348Z,98601.50
2023-11-25T16:52:55.787Z,98610.94
2023-11-25T16:55:22.336Z,98605.56
2023-11-25T16:57:48.938Z,98610.88
2023-11-25T17:00:17.592Z,98615.13
2023-11-25T17:02:45.090Z,98613.50
2023-11-25T17:05:12.040Z,98618.59
2023-11-25T17:07:38.911Z,98622.63
2023-11-25T17:10:07.101Z,98635.38
2023-11-25T17:12:33.979Z,98635.56
2023-11-25T17:15:00.976Z,98633.97
2023-11-25T17:17:27.907Z,98646.53
2023-11-25T17:19:54.580Z,98645.25
2023-11-25T17:22:21.110Z,98652.28
2023-11-25T17:24:47.821Z,98646.44
2023-11-25T17:27:14.472Z,98654.06
2023-11-25T17:29:41.809Z,98658.44
2023-11-25T17:32:10.690Z,98654.81
2023-11-25T17:34:37.437Z,98654.88
2023-11-25T17:37:04.439Z,98658.16
2023-11-25T17:39:31.078Z,98662.28
2023-11-25T17:41:57.713Z,98661.63
2023-11-25T17:44:24.220Z,98653.06
2023-11-25T17:46:53.712Z,98660.84
2023-11-25T17:49:20.303Z,98666.72
2023-11-25T17:51:46.816Z,98659.22
2023-11-25T17:54:13.288Z,98654.47
2023-11-25T17:56:39.797Z,98650.41
2023-11-25T17:59:06.298Z,98657.00
2023-11-25T18:01:35.518Z,98649.50
2023-11-25T18:04:02.283Z,98654.00
2023-11-25T18:06:31.283Z,98656.19
2023-11-25T18:08:57.922Z,98652.03
2023-11-25T18:11:24.487Z,98659.72
2023-11-25T18:13:51.128Z,98661.22
2023-11-25T18:16:17.792Z,98661.91
2023-11-25T18:18:44.391Z,98660.47
2023-11-25T18:21:12.074Z,98656.06
2023-11-25T18:23:39.076Z,98653.72
2023-11-25T18:26:06.087Z,98657.19
2023-11-25T18:28:32.883Z,98654.78
2023-11-25T18:30:59.810Z,98653.91
2023-11-25T18:33:26.608Z,98653.28
2023-11-25T18:35:53.156Z,98650.81
2023-11-25T18:38:19.761Z,98648.94
2023-11-25T18:40:46.402Z,98651.44
2023-11-25T18:43:13.146Z,98654.03
2023-11-25T18:45:39.826Z,98660.50
2023-11-25T18:48:07.848Z,98654.59
2023-11-25T18:50:34.933Z,98653.91
2023-11-25T18:53:01.786Z,98654.53
2023-11-25T18:55:28.451Z,98654.63
2023-11-25T18:57:54.906Z,98658.94
2023-11-25T19:00:21.878Z,98658.59
2023-11-25T19:02:49.093Z,98661.28
2023-11-25T19:05:16.805Z,98652.72
2023-11-25T19:07:46.215Z,98659.44
2023-11-25T19:10:12.973Z,98656.16
2023-11-25T19:12:39.787Z,98653.81
2023-11-25T19:15:06.829Z,98666.94
2023-11-25T19:17:33.745Z,98667.13
2023-11-25T19:20:00.481Z,98673.88
2023-11-25T19:22:27.065Z,98673.78
2023-11-25T19:24:53.678Z,98676.50
2023-11-25T19:27:20.202Z,98678.13
2023-11-25T19:29:47.079Z,98682.81
2023-11-25T19:32:13.789Z,98668.34
2023-11-25T19:34:40.756Z,98683.63
2023-11-25T19:37:07.672Z,98684.38
2023-11-25T19:39:34.415Z,98683.19
2023-11-25T19:42:00.939Z,98684.09
2023-11-25T19:44:27.522Z,98690.22
2023-11-25T19:46:56.095Z,98690.72
2023-11-25T19:49:22.922Z,98695.25
2023-11-25T19:51:50.126Z,98699.97
2023-11-25T19:54:22.795Z,98706.69
2023-11-25T19:56:52.734Z,98715.91
2023-11-25T19:59:19.814Z,98715.44
2023-11-25T20:01:46.521Z,98723.75
2023-11-25T20:04:13.268Z,98721.81
2023-11-25T20:06:39.843Z,98713.44
2023-11-25T20:09:06.919Z,98727.09
2023-11-25T20:11:33.446Z,98717.13
2023-11-25T20:14:00.651Z,98720.31
2023-11-25T20:16:33.423Z,98723.41
2023-11-25T20:19:00.369Z,98740.28
2023-11-25T20:21:26.930Z,98729.72
2023-11-25T20:23:53.495Z,98720.91
2023-11-25T20:26:20.081Z,98714.47
2023-11-25T20:28:47.164Z,98722.25
2023-11-25T20:31:13.886Z,98715.44
2023-11-25T20:33:41.948Z,98717.03
2023-11-25T20:36:15.138Z,98709.34
2023-11-25T20:38:41.790Z,98716.63
2023-11-25T20:41:11.663Z,98714.75
2023-11-25T20:43:39.968Z,98714.16
2023-11-25T20:46:07.086Z,98705.91
2023-11-25T20:48:34.793Z,98712.97
2023-11-25T20:51:06.232Z,98706.22
2023-11-25T20:53:33.298Z,98711.94
2023-11-25T20:55:59.971Z,98708.75
2023-11-25T20:58:28.737Z,98703.69
2023-11-25T21:00:56.228Z,98709.19
2023-11-25T21:03:23.011Z,98703.31
2023-11-25T21:05:49.612Z,98701.72
2023-11-25T21:08:17.024Z,98696.56
2023-11-25T21:10:43.762Z,98696.63
2023-11-25T21:13:10.321Z,98699.13
2023-11-25T21:15:36.842Z,98701.66
2023-11-25T21:18:04.147Z,98696.44
2023-11-25T21:20:30.679Z,98693.00
2023-11-25T21:22:57.236Z,98699.84
2023-11-25T21:25:23.796Z,98698.19
2023-11-25T21:27:55.679Z,98695.06
2023-11-25T21:30:22.217Z,98699.22
2023-11-25T21:32:48.762Z,98700.53
2023-11-25T21:35:16.282Z,98694.69
2023-11-25T21:37:44.035Z,98702.91
2023-11-25T21:40:20.435Z,98693.34
2023-11-25T21:42:50.303Z,98691.53
2023-11-25T21:45:16.868Z,98694.13
2023-11-25T21:47:43.440Z,98680.50
2023-11-25T21:50:10.579Z,98693.22
2023-11-25T21:52:37.376Z,98689.63
2023-11-25T21:55:05.389Z,98695.19
2023-11-25T21:57:32.021Z,98696.72
2023-11-25T21:59:59.836Z,98703.72
2023-11-25T22:02:27.001Z,98700.16
2023-11-25T22:04:53.900Z,98702.50
2023-11-25T22:07:20.517Z,98692.88
2023-11-25T22:09:47.040Z,98702.94
2023-11-25T22:12:13.493Z,98706.25
2023-11-25T22:14:40.006Z,98702.94
2023-11-25T22:17:06.537Z,98690.03
2023-11-25T22:19:33.904Z,98698.97
2023-11-25T22:22:00.414Z,98700.84
2023-11-25T22:24:28.681Z,98704.78
2023-11-25T22:27:00.321Z,98702.56
2023-11-25T22:29:27.079Z,98700.97
2023-11-25T22:31:55.109Z,98702.28
2023-11-25T22:34:21.910Z,98699.00
2023-11-25T22:36:48.461Z,98699.06
2023-11-25T22:39:14.937Z,98701.75
2023-11-25T22:41:41.455Z,98696.50
2023-11-25T22:44:07.956Z,98703.28
2023-11-25T22:46:35.930Z,98703.34
2023-11-25T22:49:02.711Z,98702.84
2023-11-25T22:51:29.251Z,98704.44
2023-11-25T22:53:56.772Z,98704.66
2023-11-25T22:56:23.369Z,98711.34
2023-11-25T22:58:49.885Z,98709.16
2023-11-25T23:01:37.249Z,98715.19
2023-11-25T23:04:04.132Z,98720.03
2023-11-25T23:06:32.862Z,98725.56
2023-11-25T23:08:59.735Z,98713.78
2023-11-25T23:11:26.207Z,98719.31
2023-11-25T23:13:53.952Z,98708.56
2023-11-25T23:16:20.429Z,98701.88
2023-11-25T23:18:47.127Z,98691.44
2023-11-25T23:21:13.593Z,98698.44
2023-11-25T23:23:46.174Z,98700.16
2023-11-25T23:26:15.848Z,98706.81
2023-11-25T23:28:42.663Z,98710.66
2023-11-25T23:31:09.189Z,98710.66
2023-11-25T23:33:35.718Z,98700.00
2023-11-25T23:36:02.213Z,98704.28
2023-11-25T23:38:28.781Z,98706.06
2023-11-25T23:40:55.286Z,98705.84
2023-11-25T23:43:21.925Z,98706.81
2023-11-25T23:45:48.574Z,98711.59
2023-11-25T23:48:15.180Z,98704.81
2023-11-25T23:50:42.148Z,98704.81
2023-11-25T23:53:08.754Z,98703.50
2023-11-25T23:55:35.316Z,98716.66
2023-11-25T23:58:01.775Z,98721.84
